KLCI/LCI METAR and TAF weather

Enter ICAO airport designator
Station Type Date Time Source
KLCI METAR 2022/05/26 03:56 UTC NOAA

KLCI 260356Z AUTO VRB03KT 10SM CLR 14/10 A3032 RMK AO2 SLP267 T01390100


Station Type Date Time Source
KLCI Decoded METAR 2022/05/26 03:56 UTC NOAA

Laconia, Laconia Municipal Airport, NH, United States (KLCI) 43-34N 071-25W
May 25, 2022 - 11:56 PM EDT / 2022.05.26 0356 UTC
Wind: Variable at 3 MPH (3 KT):0
Visibility: 10 mile(s):0
Sky conditions: clear
Temperature: 57.0 F (13.9 C)
Dew Point: 50.0 F (10.0 C)
Relative Humidity: 77%
Pressure (altimeter): 30.32 in. Hg (1026 hPa)
ob: KLCI 260356Z AUTO VRB03KT 10SM CLR 14/10 A3032 RMK AO2 SLP267 T01390100
cycle: 4

Station Type Date Time Source
KLCI TAF UTC NOAA

Error!

Example: see airport list